Time;durP1;ratioP1;P1;durP2;ratioP2;P2;SDS_P1;SDS_P2;PMS_P1;PMS_P2;Temp;Humidity;BMP_temperature;BMP_pressure;BME280_temperature;BME280_humidity;BME280_pressure;Samples;Min_cycle;Max_cycle;Signal;HPM_P1;HPM_P2
2023/10/19 00:01:18;;;;;;;5.13;4.57;;;7.20;99.90;;;7.19;83.28;99990.91;5084723;28;20220;-66
2023/10/19 00:03:49;;;;;;;5.55;5.05;;;7.20;99.90;;;7.19;83.44;99984.72;5086558;28;20235;-67
2023/10/19 00:06:18;;;;;;;10.20;7.28;;;7.20;99.90;;;7.20;83.62;99995.28;5087629;28;20191;-68
2023/10/19 00:08:47;;;;;;;8.82;5.15;;;7.20;99.90;;;7.16;83.38;99995.88;5084559;28;20183;-68
2023/10/19 00:11:23;;;;;;;8.20;5.18;;;7.20;99.90;;;7.23;82.96;99992.16;5086698;28;20210;-65
2023/10/19 00:13:54;;;;;;;15.38;5.60;;;7.20;99.90;;;7.21;83.29;99994.22;5090055;28;20293;-66
2023/10/19 00:16:28;;;;;;;8.90;4.97;;;7.20;99.90;;;7.18;83.14;99989.25;5087363;28;20565;-66
2023/10/19 00:18:59;;;;;;;20.70;5.85;;;7.20;99.90;;;7.15;83.58;99978.91;5082671;28;20195;-67
2023/10/19 00:21:28;;;;;;;9.20;4.95;;;7.20;99.90;;;7.06;83.82;99974.75;5086884;28;20199;-69
2023/10/19 00:24:03;;;;;;;6.47;3.42;;;7.10;99.90;;;7.10;84.14;99976.00;5088164;28;20188;-65
2023/10/19 00:26:32;;;;;;;7.82;4.82;;;7.10;99.90;;;7.09;83.99;99963.56;5085137;28;20183;-68
2023/10/19 00:29:14;;;;;;;8.43;3.90;;;7.10;99.90;;;7.08;83.90;99967.28;5090448;28;20281;-67
2023/10/19 00:31:44;;;;;;;6.18;3.58;;;7.10;99.90;;;7.01;84.43;99954.84;5081556;28;20555;-68
2023/10/19 00:34:14;;;;;;;5.53;4.47;;;7.10;99.90;;;7.02;84.45;99953.84;5084938;28;20248;-66
2023/10/19 00:36:42;;;;;;;6.22;5.63;;;7.00;99.90;;;7.00;84.41;99956.72;5078959;28;20191;-66
2023/10/19 00:39:17;;;;;;;5.90;5.28;;;7.00;99.90;;;6.97;84.84;99928.34;5088893;28;20211;-66
2023/10/19 00:41:47;;;;;;;7.97;5.63;;;7.00;99.90;;;6.93;84.97;99920.88;5075849;28;20215;-66
2023/10/19 00:44:22;;;;;;;5.47;4.97;;;6.90;99.90;;;6.96;84.77;99912.44;5080249;28;20180;-66
2023/10/19 00:47:00;;;;;;;4.60;3.60;;;7.00;99.90;;;6.94;84.97;99911.78;5088397;28;20331;-67
2023/10/19 00:49:29;;;;;;;6.55;4.55;;;6.90;99.90;;;6.86;85.40;99912.81;5084650;28;20207;-68
2023/10/19 00:52:11;;;;;;;4.15;3.53;;;6.90;99.90;;;6.85;85.20;99908.47;5080991;28;20265;-67
2023/10/19 00:54:51;;;;;;;7.18;5.80;;;6.90;99.90;;;6.81;85.78;99898.31;5087627;28;20530;-67
2023/10/19 00:57:24;;;;;;;9.20;5.43;;;6.80;99.90;;;6.79;86.12;99900.34;5072499;28;20191;-67
2023/10/19 01:00:11;;;;;;;7.28;4.53;;;6.80;99.90;;;6.78;86.48;99901.38;5073865;28;20248;-67
2023/10/19 01:02:45;;;;;;;3.80;3.30;;;6.80;99.90;;;6.76;86.67;99898.09;5076946;28;20229;-67
2023/10/19 01:05:15;;;;;;;7.32;3.50;;;6.80;99.90;;;6.75;86.52;99902.63;5093548;28;20191;-67
2023/10/19 01:07:44;;;;;;;7.72;3.97;;;6.70;99.90;;;6.68;87.03;99907.13;5082697;28;20184;-65
2023/10/19 01:10:20;;;;;;;7.28;4.70;;;6.70;99.90;;;6.73;86.93;99893.13;5088620;28;20195;-67
2023/10/19 01:12:50;;;;;;;7.80;6.22;;;6.70;99.90;;;6.72;87.06;99889.59;5077338;28;20285;-67
2023/10/19 01:15:29;;;;;;;6.55;4.65;;;6.70;99.90;;;6.69;87.34;99884.59;5084205;28;20210;-68
2023/10/19 01:18:02;;;;;;;8.23;6.35;;;6.70;99.90;;;6.67;87.35;99877.78;5076106;28;20692;-66
2023/10/19 01:20:48;;;;;;;6.82;5.88;;;6.70;99.90;;;6.68;87.24;99884.84;5085698;28;20192;-66
2023/10/19 01:23:23;;;;;;;4.85;4.32;;;6.70;99.90;;;6.57;87.84;99871.97;5092929;28;20215;-67
2023/10/19 01:26:07;;;;;;;5.28;4.82;;;6.70;99.90;;;6.64;87.74;99862.03;5078033;28;20202;-68
2023/10/19 01:28:47;;;;;;;8.23;5.13;;;6.60;99.90;;;6.71;87.12;99860.22;5091915;28;20274;-67
2023/10/19 01:31:22;;;;;;;7.75;6.07;;;6.70;99.90;;;6.71;87.21;99860.22;5083244;28;20200;-67
2023/10/19 01:33:55;;;;;;;7.47;4.75;;;6.70;99.90;;;6.74;87.40;99849.03;5076759;28;20202;-68
2023/10/19 01:36:25;;;;;;;8.88;7.53;;;6.70;99.90;;;6.72;87.37;99848.44;5086620;28;20556;-69
2023/10/19 01:39:00;;;;;;;7.72;3.85;;;6.70;99.90;;;6.75;86.73;99843.47;5093266;28;20342;-68
2023/10/19 01:41:30;;;;;;;9.15;6.20;;;6.70;99.90;;;6.76;86.98;99834.38;5093336;28;20225;-68
2023/10/19 01:44:04;;;;;;;8.20;6.88;;;6.70;99.90;;;6.72;87.22;99837.69;5093440;28;20206;-67
2023/10/19 01:46:35;;;;;;;7.63;4.38;;;6.70;99.90;;;6.79;86.71;99833.13;5086732;28;20560;-68
2023/10/19 01:49:08;;;;;;;9.60;8.70;;;6.70;99.90;;;6.79;86.61;99827.75;5088250;28;20184;-67
2023/10/19 01:51:38;;;;;;;5.80;5.20;;;6.80;99.90;;;6.83;86.21;99813.69;5090295;28;20183;-68
2023/10/19 01:54:09;;;;;;;12.55;8.10;;;6.80;99.90;;;6.84;86.01;99810.00;5093542;28;20553;-66
2023/10/19 01:56:38;;;;;;;5.90;4.72;;;6.80;99.90;;;6.76;86.77;99796.75;5072215;28;20689;-67
2023/10/19 01:59:08;;;;;;;7.57;5.82;;;6.80;99.90;;;6.79;86.65;99795.50;5082980;28;20238;-65
2023/10/19 02:01:37;;;;;;;9.15;6.88;;;6.80;99.90;;;6.84;86.23;99782.25;5070008;28;20718;-67
2023/10/19 02:04:08;;;;;;;8.55;5.75;;;6.80;99.90;;;6.77;86.43;99786.81;5092594;28;20649;-67
2023/10/19 02:06:37;;;;;;;8.43;6.20;;;6.80;99.90;;;6.82;86.29;99784.34;5092590;28;20196;-67
2023/10/19 02:13:10;;;;;;;11.13;6.60;;;6.80;99.90;;;6.81;86.45;99788.06;5075294;28;20215;-68
2023/10/19 02:15:39;;;;;;;9.70;6.30;;;6.80;99.90;;;6.91;85.88;99772.38;5073339;28;20876;-68
2023/10/19 02:18:08;;;;;;;5.40;4.53;;;6.90;99.90;;;6.97;85.41;99776.94;5079645;28;20204;-65
2023/10/19 02:20:40;;;;;;;8.02;5.90;;;6.90;99.90;;;6.92;85.86;99774.81;5091686;28;20202;-68
2023/10/19 02:23:08;;;;;;;8.65;5.38;;;6.90;99.90;;;6.98;85.43;99773.19;5087852;28;20670;-67
2023/10/19 02:25:37;;;;;;;7.35;5.43;;;6.90;99.90;;;7.00;84.99;99771.13;5086751;28;20308;-67
2023/10/19 02:28:06;;;;;;;13.77;8.63;;;7.00;99.90;;;7.01;85.08;99762.03;5092079;28;20201;-67
2023/10/19 02:30:37;;;;;;;7.05;5.57;;;7.00;99.90;;;7.07;84.93;99766.56;5069011;28;20253;-67
2023/10/19 02:33:06;;;;;;;8.35;5.28;;;7.00;99.90;;;7.03;84.69;99754.56;5073943;28;20235;-67
2023/10/19 02:35:37;;;;;;;8.40;4.93;;;7.00;99.90;;;7.05;84.72;99757.88;5087466;28;20191;-69
2023/10/19 02:38:04;;;;;;;9.15;6.32;;;7.00;99.90;;;7.06;84.73;99756.84;5079105;28;20187;-67
2023/10/19 02:40:33;;;;;;;7.32;5.85;;;7.00;99.90;;;7.05;84.59;99754.34;5090074;28;20184;-68
2023/10/19 02:43:02;;;;;;;7.25;5.40;;;7.00;99.90;;;7.10;84.74;99750.03;5084300;28;20242;-68
2023/10/19 02:45:31;;;;;;;11.73;5.38;;;7.00;99.90;;;7.07;84.17;99749.63;5070354;28;20597;-67
2023/10/19 02:48:00;;;;;;;11.20;5.57;;;7.10;99.90;;;7.05;84.35;99741.75;5089720;28;20223;-67
2023/10/19 02:50:28;;;;;;;12.02;6.57;;;7.00;99.90;;;7.05;84.21;99747.13;5084175;28;20286;-68
2023/10/19 02:52:56;;;;;;;7.30;6.13;;;7.00;99.90;;;7.06;84.48;99738.03;5073486;28;20269;-67
2023/10/19 02:55:25;;;;;;;10.32;5.93;;;7.00;99.90;;;7.06;84.56;99748.78;5089122;28;20289;-68
2023/10/19 02:57:53;;;;;;;8.00;5.50;;;7.00;99.90;;;7.09;84.40;99736.78;5089029;28;20191;-68
2023/10/19 03:00:22;;;;;;;6.75;4.00;;;7.00;99.90;;;7.09;84.08;99724.16;5083667;28;20207;-67
2023/10/19 03:02:52;;;;;;;11.48;5.10;;;7.00;99.90;;;7.12;83.94;99720.19;5073779;28;20211;-68
2023/10/19 03:05:23;;;;;;;9.13;5.32;;;7.00;99.90;;;7.11;84.18;99719.41;5089587;28;20199;-68
2023/10/19 03:07:52;;;;;;;9.38;5.97;;;7.00;99.90;;;7.13;83.83;99709.25;5090471;28;20187;-67
2023/10/19 03:10:34;;;;;;;13.00;6.38;;;7.10;99.90;;;7.13;84.08;99709.25;5072026;28;20195;-68
2023/10/19 03:13:04;;;;;;;7.38;6.63;;;7.10;99.90;;;7.06;84.23;99712.97;5089740;28;20214;-67
2023/10/19 03:15:33;;;;;;;8.00;6.75;;;7.10;99.90;;;7.10;84.43;99701.59;5083805;28;20199;-67
2023/10/19 03:18:01;;;;;;;8.45;6.00;;;7.10;99.90;;;7.08;84.63;99703.66;5076197;28;20594;-67
2023/10/19 03:20:33;;;;;;;8.85;7.00;;;7.00;99.90;;;7.07;84.06;99690.44;5075813;28;20219;-66
2023/10/19 03:23:02;;;;;;;8.40;6.82;;;7.00;99.90;;;7.07;84.20;99691.25;5070141;28;20211;-67
2023/10/19 03:25:49;;;;;;;10.95;5.80;;;7.00;99.90;;;7.01;84.34;99686.72;5092564;28;20191;-67
2023/10/19 03:28:18;;;;;;;10.82;6.68;;;7.00;99.90;;;7.06;84.50;99686.91;5090232;28;20195;-67
2023/10/19 03:30:47;;;;;;;8.00;7.22;;;7.00;99.90;;;7.01;84.87;99691.25;5092137;28;20191;-71
2023/10/19 03:33:18;;;;;;;9.00;5.50;;;7.00;99.90;;;7.07;84.46;99687.75;5091121;28;20235;-68
2023/10/19 03:35:48;;;;;;;9.77;7.03;;;7.00;99.90;;;7.03;84.80;99681.09;5091542;28;20270;-68
2023/10/19 03:38:18;;;;;;;14.45;6.18;;;7.00;99.90;;;7.01;84.87;99686.72;5090012;28;20207;-66
2023/10/19 03:40:51;;;;;;;6.63;4.22;;;7.00;99.90;;;7.08;84.51;99674.06;5072487;28;20206;-67
2023/10/19 03:43:21;;;;;;;8.95;5.18;;;7.00;99.90;;;7.06;84.47;99673.47;5069675;28;20733;-65
2023/10/19 03:45:52;;;;;;;8.05;6.43;;;7.00;99.90;;;7.07;84.17;99658.97;5076968;28;20202;-67
2023/10/19 03:48:26;;;;;;;18.50;6.95;;;7.00;99.90;;;7.02;84.65;99649.88;5082151;28;20191;-68
2023/10/19 03:50:56;;;;;;;11.50;7.32;;;7.00;99.90;;;7.01;84.86;99654.44;5088816;28;20187;-68
2023/10/19 03:53:25;;;;;;;10.50;5.75;;;7.00;99.90;;;6.96;84.83;99644.31;5090550;28;20226;-67
2023/10/19 03:55:55;;;;;;;10.73;6.78;;;7.00;99.90;;;6.97;84.60;99645.94;5070033;28;20238;-66
2023/10/19 03:58:28;;;;;;;9.00;5.55;;;7.00;99.90;;;7.00;84.97;99650.09;5073137;28;20252;-67
2023/10/19 04:01:01;;;;;;;9.13;4.30;;;7.00;99.90;;;6.94;85.25;99641.00;5086173;28;20230;-66
2023/10/19 04:03:30;;;;;;;9.65;5.78;;;6.90;99.90;;;7.01;84.79;99632.91;5083995;28;20932;-68
2023/10/19 04:06:03;;;;;;;8.20;5.72;;;7.00;99.90;;;6.98;84.91;99634.16;5087080;28;20191;-67
2023/10/19 04:08:37;;;;;;;11.68;6.28;;;7.00;99.90;;;6.99;85.02;99633.13;5087169;28;20180;-68
2023/10/19 04:11:21;;;;;;;11.00;5.07;;;7.00;99.90;;;6.99;84.83;99634.97;5088463;28;20266;-67
2023/10/19 04:13:54;;;;;;;7.07;6.15;;;7.00;99.90;;;7.03;85.22;99633.53;5084729;28;20206;-66
2023/10/19 04:16:22;;;;;;;15.10;8.00;;;7.00;99.90;;;7.07;85.07;99636.63;5090242;28;20191;-68
2023/10/19 04:18:51;;;;;;;7.82;7.07;;;7.00;99.90;;;6.91;85.44;99632.53;5087311;28;20184;-67
2023/10/19 04:21:20;;;;;;;11.27;7.18;;;6.90;99.90;;;6.94;85.55;99626.72;5094250;28;20773;-68
2023/10/19 04:23:49;;;;;;;8.02;5.22;;;6.90;99.90;;;6.98;85.73;99619.88;5089986;28;20215;-68
2023/10/19 04:26:18;;;;;;;9.32;6.20;;;6.90;99.90;;;7.00;85.22;99617.81;5089710;28;20214;-67
2023/10/19 04:28:49;;;;;;;11.82;9.23;;;7.00;99.90;;;6.96;85.27;99609.34;5088978;28;20528;-66
2023/10/19 04:31:19;;;;;;;8.82;7.00;;;6.90;99.90;;;6.91;85.41;99613.69;5078675;28;20194;-67
2023/10/19 04:33:47;;;;;;;12.63;6.90;;;6.90;99.90;;;6.82;86.02;99598.81;5084939;28;20633;-67
2023/10/19 04:36:19;;;;;;;8.15;7.35;;;6.80;99.90;;;6.91;85.58;99605.63;5080223;28;20607;-67
2023/10/19 04:38:49;;;;;;;12.40;7.25;;;6.80;99.90;;;6.86;86.11;99598.19;5085206;28;20266;-68
2023/10/19 04:41:17;;;;;;;10.20;7.35;;;6.80;99.90;;;6.79;86.40;99597.34;5083893;28;20211;-67
2023/10/19 04:43:49;;;;;;;10.68;6.90;;;6.80;99.90;;;6.80;86.22;99603.56;5083821;28;20206;-67
2023/10/19 04:46:19;;;;;;;11.75;8.02;;;6.80;99.90;;;6.73;86.86;99597.38;5089509;28;20196;-67
2023/10/19 04:48:49;;;;;;;9.38;7.15;;;6.70;99.90;;;6.74;86.51;99586.41;5077827;28;20200;-68
2023/10/19 04:51:18;;;;;;;11.20;7.25;;;6.70;99.90;;;6.74;86.52;99583.72;5088435;28;20187;-67
2023/10/19 04:53:47;;;;;;;10.77;7.28;;;6.70;99.90;;;6.76;86.48;99584.34;5079794;28;20234;-68
2023/10/19 04:56:19;;;;;;;9.90;6.93;;;6.70;99.90;;;6.78;86.92;99573.38;5081297;28;20222;-67
2023/10/19 04:58:47;;;;;;;10.80;7.30;;;6.70;99.90;;;6.78;86.78;99578.75;5084087;28;20211;-67
2023/10/19 05:01:16;;;;;;;12.20;6.30;;;6.80;99.90;;;6.74;87.31;99577.50;5086810;28;20207;-66
2023/10/19 05:03:45;;;;;;;14.05;9.80;;;6.70;99.90;;;6.77;86.52;99577.13;5084262;28;20260;-67
2023/10/19 05:06:13;;;;;;;10.65;6.88;;;6.70;99.90;;;6.80;86.23;99576.69;5086699;28;20191;-65
2023/10/19 05:08:42;;;;;;;12.68;10.23;;;6.70;99.90;;;6.76;86.83;99580.84;5089315;28;20205;-67
2023/10/19 05:11:11;;;;;;;10.27;7.55;;;6.70;99.90;;;6.80;86.63;99568.63;5088803;28;20266;-67
2023/10/19 05:13:40;;;;;;;14.70;8.10;;;6.70;99.90;;;6.78;86.47;99573.38;5087187;28;20550;-68
2023/10/19 05:16:08;;;;;;;6.85;6.18;;;6.70;99.90;;;6.78;86.68;99573.38;5087582;28;20196;-68
2023/10/19 05:18:37;;;;;;;11.05;5.75;;;6.70;99.90;;;6.79;86.77;99577.72;5078082;28;20735;-68
2023/10/19 05:21:05;;;;;;;10.13;6.22;;;6.70;99.90;;;6.77;87.20;99571.72;5089353;28;20294;-67
2023/10/19 05:23:33;;;;;;;9.15;7.35;;;6.80;99.90;;;6.77;86.77;99579.81;5076125;28;20215;-68
2023/10/19 05:26:04;;;;;;;10.27;7.35;;;6.80;99.90;;;6.67;87.53;99565.97;5088099;28;20647;-67
2023/10/19 05:28:39;;;;;;;9.10;5.63;;;6.70;99.90;;;6.67;87.90;99565.97;5083684;28;20732;-66
2023/10/19 05:31:08;;;;;;;9.18;6.75;;;6.70;99.90;;;6.78;87.64;99557.22;5080432;28;20191;-64
2023/10/19 05:33:36;;;;;;;9.52;7.07;;;6.70;99.90;;;6.71;87.65;99561.81;5080003;28;20218;-68
2023/10/19 05:36:06;;;;;;;12.80;7.40;;;6.70;99.90;;;6.67;87.89;99560.59;5074879;28;20195;-68
2023/10/19 05:38:34;;;;;;;10.07;8.23;;;6.70;99.90;;;6.60;88.87;99559.75;5089779;28;20613;-67
2023/10/19 05:41:03;;;;;;;17.90;10.00;;;6.60;99.90;;;6.53;89.33;99560.56;5081000;28;20273;-67
2023/10/19 05:43:33;;;;;;;10.30;6.78;;;6.60;99.90;;;6.50;89.98;99566.38;5084585;28;20211;-67
2023/10/19 05:46:03;;;;;;;8.27;6.93;;;6.50;99.90;;;6.51;90.12;99578.78;5085176;28;20188;-67
2023/10/19 05:48:32;;;;;;;9.55;7.85;;;6.50;99.90;;;6.38;90.58;99573.44;5085153;28;20274;-68
2023/10/19 05:51:00;;;;;;;13.73;9.68;;;6.40;99.90;;;6.42;91.57;99579.22;5093830;28;20184;-68
2023/10/19 05:53:30;;;;;;;10.80;7.90;;;6.40;99.90;;;6.47;91.51;99577.56;5087075;28;20212;-67
2023/10/19 05:55:58;;;;;;;8.25;5.88;;;6.40;99.90;;;6.45;91.79;99576.94;5080741;28;20489;-68
2023/10/19 05:58:26;;;;;;;15.32;7.80;;;6.40;99.90;;;6.45;92.53;99576.94;5083410;28;20468;-66
2023/10/19 06:00:59;;;;;;;15.20;8.55;;;6.40;99.90;;;6.38;94.01;99577.97;5086818;28;20310;-68
2023/10/19 06:03:29;;;;;;;9.52;7.88;;;6.40;99.90;;;6.31;95.29;99569.91;5082748;28;20212;-67
2023/10/19 06:05:58;;;;;;;8.00;6.82;;;6.40;99.90;;;6.36;95.24;99569.28;5087290;28;20192;-68
2023/10/19 06:08:27;;;;;;;7.97;6.13;;;6.30;99.90;;;6.41;94.36;99556.88;5085905;28;20195;-67
2023/10/19 06:10:55;;;;;;;10.70;9.05;;;6.40;99.90;;;6.31;95.68;99561.00;5084692;28;20635;-67
2023/10/19 06:13:23;;;;;;;18.40;9.63;;;6.30;99.90;;;6.31;96.34;99550.25;5094059;28;20219;-66
2023/10/19 06:15:52;;;;;;;12.18;7.25;;;6.30;99.90;;;6.35;96.87;99546.13;5080696;28;20184;-68
2023/10/19 06:18:21;;;;;;;8.65;6.40;;;6.30;99.90;;;6.35;97.27;99540.75;5078561;28;20253;-68
2023/10/19 06:20:51;;;;;;;8.70;6.15;;;6.30;99.90;;;6.40;98.55;99532.91;5088378;28;20257;-67
2023/10/19 06:23:20;;;;;;;12.68;7.72;;;6.30;99.90;;;6.36;97.60;99531.66;5091334;28;20587;-67
2023/10/19 06:25:51;;;;;;;11.07;7.10;;;6.30;99.90;;;6.41;98.26;99532.69;5082131;28;20191;-67
2023/10/19 06:28:19;;;;;;;15.30;10.20;;;6.30;99.90;;;6.38;98.58;99535.81;5092847;28;20194;-66
2023/10/19 06:30:50;;;;;;;17.83;8.95;;;6.30;99.90;;;6.37;98.75;99539.53;5085350;28;20184;-66
2023/10/19 06:33:18;;;;;;;14.05;8.02;;;6.30;99.90;;;6.35;98.87;99540.75;5095490;28;20214;-66
2023/10/19 06:35:47;;;;;;;8.05;6.28;;;6.30;99.90;;;6.38;98.60;99543.88;5087926;28;20195;-67
2023/10/19 06:38:16;;;;;;;16.75;9.75;;;6.30;99.90;;;6.29;100.00;99538.91;5090495;28;20192;-68
2023/10/19 06:40:47;;;;;;;9.57;6.55;;;6.30;1.00;;;6.29;99.88;99526.31;5086654;28;20207;-69
2023/10/19 06:43:16;;;;;;;11.85;7.82;;;6.20;1.00;;;6.35;100.00;99519.25;5087605;28;20661;-67
2023/10/19 06:45:45;;;;;;;18.23;8.35;;;6.30;1.00;;;6.36;100.00;99521.75;5084811;28;20261;-68
2023/10/19 06:48:15;;;;;;;12.35;7.40;;;6.30;1.00;;;6.36;99.98;99516.38;5086100;28;20218;-68
2023/10/19 06:50:45;;;;;;;11.90;7.03;;;6.30;1.00;;;6.30;99.64;99506.44;5088953;28;20179;-67
2023/10/19 06:53:20;;;;;;;10.70;9.23;;;6.30;99.90;;;6.29;99.55;99517.44;5092356;28;20217;-67
2023/10/19 06:55:48;;;;;;;9.65;8.32;;;6.30;99.90;;;6.32;100.00;99517.84;5091733;28;20218;-67
2023/10/19 06:58:19;;;;;;;11.25;8.48;;;6.20;1.00;;;6.39;99.74;99512.47;5089899;28;20191;-68
2023/10/19 07:00:56;;;;;;;12.55;5.97;;;6.30;1.00;;;6.38;99.40;99508.94;5087382;28;20199;-68
2023/10/19 07:03:24;;;;;;;13.60;9.13;;;6.30;99.90;;;6.46;99.14;99497.13;5083464;28;20218;-68
2023/10/19 07:05:54;;;;;;;8.82;6.88;;;6.40;99.90;;;6.45;99.10;99493.63;5083653;28;20261;-67
2023/10/19 07:08:26;;;;;;;6.57;5.93;;;6.40;99.90;;;6.47;99.56;99491.56;5082601;28;20266;-68
2023/10/19 07:10:55;;;;;;;16.02;5.82;;;6.40;99.90;;;6.55;98.97;99488.66;5083885;28;20652;-67
2023/10/19 07:13:23;;;;;;;23.70;8.75;;;6.40;99.90;;;6.61;98.10;99492.34;5089451;28;20219;-67
2023/10/19 07:15:52;;;;;;;10.40;8.20;;;6.50;99.90;;;6.69;98.75;99489.44;5084689;28;20484;-68
2023/10/19 07:18:20;;;;;;;13.90;10.02;;;6.60;99.90;;;6.61;98.17;99488.84;5088007;28;20297;-68
2023/10/19 07:20:49;;;;;;;11.82;6.22;;;6.60;99.90;;;6.58;98.42;99486.59;5079682;28;20647;-68
2023/10/19 07:23:21;;;;;;;15.13;7.88;;;6.50;99.90;;;6.57;98.34;99483.06;5086323;28;20226;-69
2023/10/19 07:25:54;;;;;;;13.57;9.90;;;6.60;99.90;;;6.68;98.33;99486.97;5083538;28;20192;-67
2023/10/19 07:28:26;;;;;;;19.15;9.10;;;6.60;99.90;;;6.65;98.53;99492.75;5086111;28;20191;-67
2023/10/19 07:30:55;;;;;;;10.00;6.25;;;6.60;99.90;;;6.72;98.16;99488.19;5081180;28;20201;-65
2023/10/19 07:33:26;;;;;;;8.88;5.43;;;6.60;99.90;;;6.80;97.53;99490.66;5082153;28;20302;-68
2023/10/19 07:35:55;;;;;;;9.80;7.60;;;6.70;99.90;;;6.86;97.06;99484.44;5086848;28;20649;-66
2023/10/19 07:38:25;;;;;;;13.48;6.68;;;6.70;99.90;;;6.87;97.23;99486.09;5099761;28;20207;-68
2023/10/19 07:40:55;;;;;;;10.57;8.88;;;6.70;99.90;;;7.03;96.99;99495.53;5091198;28;20283;-69
2023/10/19 07:43:25;;;;;;;8.95;7.97;;;6.80;99.90;;;7.11;95.50;99495.31;5086992;28;20261;-67
2023/10/19 07:45:54;;;;;;;14.85;10.20;;;6.90;99.90;;;7.05;95.94;99496.97;5084929;28;20272;-68
2023/10/19 07:48:22;;;;;;;11.43;8.55;;;6.90;99.90;;;7.17;95.96;99497.94;5082067;28;20191;-67
2023/10/19 07:50:51;;;;;;;9.15;6.85;;;7.00;99.90;;;7.32;95.65;99505.75;5091271;28;20191;-68
2023/10/19 07:53:21;;;;;;;8.30;6.55;;;7.10;99.90;;;7.27;93.92;99492.94;5083273;28;20269;-67
2023/10/19 07:55:49;;;;;;;13.48;7.25;;;7.20;99.90;;;7.27;94.03;99498.31;5083151;28;20308;-69
2023/10/19 07:58:19;;;;;;;11.73;8.40;;;7.10;99.90;;;7.27;93.78;99495.63;5082650;28;20187;-67
2023/10/19 08:00:48;;;;;;;11.52;7.40;;;7.20;99.90;;;7.22;94.06;99487.38;5082368;28;20252;-68
2023/10/19 08:03:16;;;;;;;12.70;8.88;;;7.20;99.90;;;7.18;94.15;99494.22;5084034;28;20690;-68
2023/10/19 08:05:45;;;;;;;10.82;8.70;;;7.10;99.90;;;7.11;94.88;99490.75;5085859;28;20192;-68
2023/10/19 08:08:13;;;;;;;14.80;9.55;;;7.10;99.90;;;7.13;93.82;99491.34;5082209;28;20627;-69
2023/10/19 08:10:42;;;;;;;11.82;8.45;;;7.10;99.90;;;7.22;94.14;99484.66;5079986;28;20188;-68
2023/10/19 08:13:12;;;;;;;8.23;6.53;;;7.10;99.90;;;7.22;93.33;99486.53;5083044;28;20219;-68
2023/10/19 08:15:42;;;;;;;13.25;8.82;;;7.10;99.90;;;7.35;92.58;99490.00;5086881;28;20191;-68
2023/10/19 08:18:12;;;;;;;11.35;7.82;;;7.20;99.90;;;7.34;93.05;99493.72;5085346;28;20187;-67
2023/10/19 08:20:40;;;;;;;19.40;8.95;;;7.20;99.90;;;7.37;92.78;99487.91;5083591;28;20253;-67
2023/10/19 08:23:10;;;;;;;10.27;6.95;;;7.30;99.90;;;7.49;93.00;99479.16;5088704;28;20215;-67
2023/10/19 08:25:39;;;;;;;14.50;6.72;;;7.30;99.90;;;7.51;91.88;99477.06;5082727;28;20271;-67
2023/10/19 08:28:24;;;;;;;12.27;7.75;;;7.30;99.90;;;7.49;92.19;99463.84;5083797;28;20199;-69
2023/10/19 08:31:01;;;;;;;8.35;5.68;;;7.40;99.90;;;7.58;91.31;99459.00;5083024;28;20215;-69
2023/10/19 08:33:33;;;;;;;10.82;6.93;;;7.40;99.90;;;7.67;91.05;99452.31;5085069;28;20203;-68
2023/10/19 08:36:03;;;;;;;12.80;8.48;;;7.50;99.90;;;7.67;91.50;99449.63;5071200;28;20196;-67
2023/10/19 08:38:32;;;;;;;7.22;5.55;;;7.50;99.90;;;7.74;91.12;99455.81;5082289;28;20184;-67
2023/10/19 08:41:01;;;;;;;17.90;7.30;;;7.60;99.90;;;7.74;90.27;99450.41;5086764;28;20192;-67
2023/10/19 08:43:33;;;;;;;8.38;6.05;;;7.60;99.90;;;7.73;90.58;99443.38;5085965;28;20242;-70
2023/10/19 08:46:04;;;;;;;8.38;6.50;;;7.60;99.90;;;7.86;90.65;99437.88;5088935;28;20210;-68
2023/10/19 08:48:36;;;;;;;10.73;7.68;;;7.70;99.90;;;7.91;89.99;99435.34;5081363;28;20214;-69
2023/10/19 08:51:11;;;;;;;10.95;7.70;;;7.70;99.90;;;7.86;89.43;99444.09;5082549;28;20194;-66
2023/10/19 08:53:40;;;;;;;11.75;6.25;;;7.80;99.90;;;8.04;89.39;99440.63;5085044;28;20207;-69
2023/10/19 08:56:11;;;;;;;7.55;6.28;;;7.80;99.90;;;8.04;89.72;99437.91;5083256;28;20665;-69
2023/10/19 08:58:40;;;;;;;9.90;4.70;;;7.90;99.90;;;8.12;89.21;99434.13;5085343;28;20188;-69
2023/10/19 09:01:11;;;;;;;17.95;8.50;;;8.00;99.90;;;8.27;89.03;99440.84;5089033;28;20215;-65
2023/10/19 09:03:40;;;;;;;13.63;6.20;;;8.00;99.90;;;8.42;87.67;99439.69;5080016;28;20704;-66
2023/10/19 09:06:12;;;;;;;7.93;6.60;;;8.10;99.90;;;8.42;87.12;99437.00;5082057;28;20228;-68
2023/10/19 09:08:42;;;;;;;42.05;7.07;;;8.20;99.90;;;8.43;87.28;99444.81;5087773;28;20207;-66
2023/10/19 09:11:13;;;;;;;17.02;6.00;;;8.20;99.90;;;8.57;86.08;99446.34;5086773;28;20203;-68
2023/10/19 09:13:47;;;;;;;8.77;7.90;;;8.30;99.90;;;8.64;85.54;99446.28;5083490;28;20265;-68
2023/10/19 09:16:19;;;;;;;12.45;8.07;;;8.40;99.90;;;8.52;85.98;99450.78;5077964;28;20738;-68
2023/10/19 09:18:49;;;;;;;9.40;6.20;;;8.30;99.90;;;8.44;86.51;99451.03;5078688;28;20195;-67
2023/10/19 09:21:25;;;;;;;10.80;5.75;;;8.30;99.90;;;8.31;87.29;99443.09;5079571;28;20198;-67
2023/10/19 09:23:55;;;;;;;7.90;6.95;;;8.20;99.90;;;8.23;87.95;99428.00;5078825;28;20218;-67
2023/10/19 09:26:25;;;;;;;7.05;5.03;;;8.20;99.90;;;8.21;88.48;99420.16;5078330;28;20206;-69
2023/10/19 09:28:54;;;;;;;10.63;8.27;;;8.10;99.90;;;8.25;89.08;99398.97;5079902;28;20219;-67
2023/10/19 09:31:25;;;;;;;14.07;8.90;;;8.10;99.90;;;8.28;88.43;99404.72;5080804;28;20203;-65
2023/10/19 09:33:55;;;;;;;8.13;5.68;;;8.20;99.90;;;8.38;87.84;99408.81;5079749;28;20207;-67
2023/10/19 09:36:29;;;;;;;12.40;9.55;;;8.20;99.90;;;8.26;88.75;99417.63;5079342;28;20276;-65
2023/10/19 09:38:58;;;;;;;8.73;6.70;;;8.20;99.90;;;8.38;88.52;99406.09;5079480;28;20264;-66
2023/10/19 09:41:29;;;;;;;7.03;6.38;;;8.30;99.90;;;8.41;88.47;99401.13;5079012;28;20273;-67
2023/10/19 09:44:04;;;;;;;8.52;5.25;;;8.30;99.90;;;8.23;89.14;99409.97;5078964;28;20230;-67
2023/10/19 09:46:39;;;;;;;9.10;7.40;;;8.20;99.90;;;8.17;89.25;99410.06;5081851;28;20659;-68
2023/10/19 09:49:11;;;;;;;10.02;6.45;;;8.20;99.90;;;8.16;89.92;99416.47;5086850;28;20700;-67
2023/10/19 09:51:42;;;;;;;9.05;6.72;;;8.10;99.90;;;8.19;90.77;99422.25;5081179;28;20252;-68
2023/10/19 09:54:29;;;;;;;15.65;7.38;;;8.10;99.90;;;8.22;90.72;99416.41;5068637;28;20237;-68
2023/10/19 09:57:10;;;;;;;11.35;5.63;;;8.20;99.90;;;8.40;90.48;99414.81;5069352;28;20319;-66
2023/10/19 09:59:43;;;;;;;9.02;6.07;;;8.20;99.90;;;8.39;90.64;99413.97;5069338;28;20187;-66
2023/10/19 10:02:18;;;;;;;14.55;7.72;;;8.20;99.90;;;8.42;90.45;99410.03;5069568;28;20211;-67
2023/10/19 10:04:48;;;;;;;11.48;7.18;;;8.20;99.90;;;8.44;90.93;99406.06;5067887;28;20783;-67
2023/10/19 10:07:18;;;;;;;9.93;8.77;;;8.30;99.90;;;8.33;91.22;99398.69;5066625;28;20195;-67
2023/10/19 10:10:08;;;;;;;9.50;6.60;;;8.20;99.90;;;8.47;91.02;99394.00;5067708;28;20202;-67
2023/10/19 10:12:37;;;;;;;10.18;7.85;;;8.30;99.90;;;8.61;90.78;99404.41;5067007;28;20215;-65
2023/10/19 10:15:07;;;;;;;11.85;6.40;;;8.40;99.90;;;8.70;90.93;99404.94;5066839;28;20199;-65
2023/10/19 10:17:39;;;;;;;11.77;6.50;;;8.50;99.90;;;8.68;89.75;99404.31;5065611;28;20203;-68
2023/10/19 10:20:31;;;;;;;13.10;6.60;;;8.50;99.90;;;8.66;89.92;99401.03;5067363;28;20207;-65
2023/10/19 10:23:24;;;;;;;9.32;5.60;;;8.50;99.90;;;8.51;91.31;99408.69;5067416;28;20645;-67
2023/10/19 10:25:53;;;;;;;8.82;6.90;;;8.40;99.90;;;8.42;91.23;99402.78;5050639;28;20203;-65
2023/10/19 10:28:23;;;;;;;10.55;6.80;;;8.40;99.90;;;8.31;91.77;99397.28;5068365;28;20199;-64
2023/10/19 10:31:16;;;;;;;10.15;7.72;;;8.40;99.90;;;8.30;92.59;99380.28;5065928;28;20214;-66
2023/10/19 10:33:49;;;;;;;10.15;8.23;;;8.30;99.90;;;8.18;92.70;99376.66;5085392;28;20222;-66
2023/10/19 10:36:19;;;;;;;9.63;7.28;;;8.20;99.90;;;8.21;93.32;99368.97;5085897;28;20264;-67
2023/10/19 10:38:49;;;;;;;7.68;4.32;;;8.20;99.90;;;8.15;93.48;99355.53;5085192;28;20283;-66
2023/10/19 10:41:24;;;;;;;9.50;5.85;;;8.20;99.90;;;8.05;95.98;99360.63;5086467;28;20253;-65
2023/10/19 10:43:55;;;;;;;8.85;8.05;;;8.10;99.90;;;7.99;97.69;99351.56;5084973;28;20219;-67
2023/10/19 10:46:27;;;;;;;8.90;7.95;;;8.00;99.90;;;8.01;99.17;99352.16;5085306;28;20687;-68
2023/10/19 10:48:57;;;;;;;12.80;8.40;;;8.00;99.90;;;7.95;100.00;99355.75;5085339;28;20195;-68
2023/10/19 10:51:28;;;;;;;13.48;9.85;;;7.90;99.90;;;7.91;100.00;99359.09;5085557;28;20229;-68